createdAt,value
2022-12-25T00:00:16.615Z,6.25
2022-12-25T00:02:49.953Z,6.21
2022-12-25T00:05:18.101Z,6.25
2022-12-25T00:07:46.173Z,6.36
2022-12-25T00:10:14.641Z,6.37
2022-12-25T00:12:42.852Z,6.37
2022-12-25T00:15:11.553Z,6.29
2022-12-25T00:17:39.617Z,6.21
2022-12-25T00:20:10.559Z,6.18
2022-12-25T00:22:38.621Z,6.15
2022-12-25T00:25:07.269Z,6.11
2022-12-25T00:27:37.976Z,6.06
2022-12-25T00:30:07.881Z,6.01
2022-12-25T00:32:37.158Z,5.99
2022-12-25T00:35:06.851Z,5.94
2022-12-25T00:37:36.378Z,5.90
2022-12-25T00:40:04.820Z,5.91
2022-12-25T00:42:32.891Z,5.92
2022-12-25T00:45:02.560Z,5.92
2022-12-25T00:47:31.439Z,5.95
2022-12-25T00:49:59.472Z,6.02
2022-12-25T00:52:28.219Z,6.07
2022-12-25T00:54:57.918Z,6.14
2022-12-25T00:57:25.975Z,6.15
2022-12-25T00:59:54.504Z,6.14
2022-12-25T01:02:25.879Z,6.13
2022-12-25T01:04:59.352Z,6.14
2022-12-25T01:07:28.869Z,6.16
2022-12-25T01:10:15.960Z,6.11
2022-12-25T01:12:45.168Z,6.14
2022-12-25T01:15:14.286Z,6.17
2022-12-25T01:17:43.615Z,6.23
2022-12-25T01:20:13.004Z,6.27
2022-12-25T01:22:41.119Z,6.31
2022-12-25T01:25:12.439Z,6.32
2022-12-25T01:27:42.375Z,6.26
2022-12-25T01:30:11.924Z,6.24
2022-12-25T01:32:40.195Z,6.22
2022-12-25T01:35:08.867Z,6.26
2022-12-25T01:37:37.174Z,6.26
2022-12-25T01:40:06.008Z,6.28
2022-12-25T01:42:35.955Z,6.31
2022-12-25T01:45:35.875Z,6.41
2022-12-25T01:48:06.871Z,6.43
2022-12-25T01:50:37.555Z,6.38
2022-12-25T01:53:06.237Z,6.32
2022-12-25T01:55:36.311Z,6.26
2022-12-25T01:58:05.927Z,6.32
2022-12-25T02:03:27.498Z,6.27
2022-12-25T02:05:55.664Z,6.20
2022-12-25T02:08:24.812Z,6.18
2022-12-25T02:10:52.925Z,6.16
2022-12-25T02:13:22.764Z,6.09
2022-12-25T02:16:00.318Z,6.16
2022-12-25T02:18:37.800Z,6.24
2022-12-25T02:21:28.810Z,6.32
2022-12-25T02:24:14.428Z,6.33
2022-12-25T02:27:05.660Z,6.29
2022-12-25T02:29:43.804Z,6.21
2022-12-25T02:32:21.704Z,6.18
2022-12-25T02:34:57.380Z,6.18
2022-12-25T02:37:32.138Z,6.12
2022-12-25T02:40:06.104Z,6.08
2022-12-25T02:43:01.127Z,6.01
2022-12-25T02:45:58.034Z,6.01
2022-12-25T02:48:46.827Z,6.04
2022-12-25T02:51:35.453Z,6.08
2022-12-25T02:54:26.454Z,6.13
2022-12-25T02:57:14.438Z,6.10
2022-12-25T03:00:04.221Z,6.16
2022-12-25T03:02:52.533Z,6.22
2022-12-25T03:05:42.380Z,6.32
2022-12-25T03:08:14.634Z,6.33
2022-12-25T03:11:07.110Z,6.29
2022-12-25T03:13:39.128Z,6.25
2022-12-25T03:16:26.063Z,6.25
2022-12-25T03:18:58.833Z,6.12
2022-12-25T03:21:44.656Z,6.08
2022-12-25T03:24:30.064Z,6.07
2022-12-25T03:26:59.129Z,5.97
2022-12-25T03:29:48.237Z,5.97
2022-12-25T03:32:28.054Z,5.97
2022-12-25T03:35:20.763Z,5.97
2022-12-25T03:38:22.507Z,5.88
2022-12-25T03:41:21.450Z,5.77
2022-12-25T03:44:14.516Z,5.75
2022-12-25T03:47:05.973Z,5.70
2022-12-25T03:49:58.768Z,5.67
2022-12-25T03:52:48.144Z,5.67
2022-12-25T03:55:35.789Z,5.76
2022-12-25T03:58:21.490Z,5.82
2022-12-25T04:01:07.291Z,5.90
2022-12-25T04:03:53.028Z,5.95
2022-12-25T04:06:38.757Z,5.99
2022-12-25T04:09:25.776Z,5.97
2022-12-25T04:12:11.095Z,5.94
2022-12-25T04:14:56.333Z,5.91
2022-12-25T04:17:41.965Z,5.90
2022-12-25T04:20:39.503Z,5.92
2022-12-25T04:23:24.863Z,5.91
2022-12-25T04:26:11.928Z,5.95
2022-12-25T04:28:59.910Z,6.02
2022-12-25T04:31:48.326Z,6.02
2022-12-25T04:34:34.094Z,6.00
2022-12-25T04:37:02.085Z,6.01
2022-12-25T04:39:30.220Z,6.02
2022-12-25T04:42:01.274Z,6.03
2022-12-25T04:44:29.682Z,6.01
2022-12-25T04:46:58.000Z,6.00
2022-12-25T04:49:26.170Z,5.97
2022-12-25T04:51:54.476Z,5.95
2022-12-25T04:54:22.830Z,5.98
2022-12-25T04:56:50.953Z,5.97
2022-12-25T04:59:20.676Z,5.99
2022-12-25T05:01:48.914Z,6.02
2022-12-25T05:04:16.996Z,6.00
2022-12-25T05:06:45.397Z,6.02
2022-12-25T05:09:13.437Z,6.04
2022-12-25T05:11:41.462Z,6.08
2022-12-25T05:14:09.665Z,6.12
2022-12-25T05:16:39.738Z,6.14
2022-12-25T05:19:08.476Z,6.11
2022-12-25T05:21:36.698Z,6.14
2022-12-25T05:24:04.941Z,6.16
2022-12-25T05:26:33.064Z,6.19
2022-12-25T05:29:01.554Z,6.16
2022-12-25T05:31:29.738Z,6.20
2022-12-25T05:33:59.683Z,6.22
2022-12-25T05:36:28.362Z,6.25
2022-12-25T05:38:56.821Z,6.30
2022-12-25T05:41:27.870Z,6.37
2022-12-25T05:44:00.577Z,6.40
2022-12-25T05:46:28.833Z,6.37
2022-12-25T05:48:58.473Z,6.33
2022-12-25T05:51:26.895Z,6.25
2022-12-25T05:53:55.215Z,6.27
2022-12-25T05:56:23.465Z,6.27
2022-12-25T05:58:51.785Z,6.31
2022-12-25T06:01:22.742Z,6.29
2022-12-25T06:03:50.848Z,6.29
2022-12-25T06:06:20.416Z,6.29
2022-12-25T06:08:49.795Z,6.26
2022-12-25T06:11:17.821Z,6.24
2022-12-25T06:13:46.029Z,6.21
2022-12-25T06:16:14.304Z,6.19
2022-12-25T06:18:45.997Z,6.17
2022-12-25T06:21:16.246Z,6.15
2022-12-25T06:23:46.816Z,6.12
2022-12-25T06:26:17.224Z,6.16
2022-12-25T06:28:45.910Z,6.17
2022-12-25T06:31:17.188Z,6.14
2022-12-25T06:33:45.938Z,6.12
2022-12-25T06:36:17.006Z,6.15
2022-12-25T06:38:46.925Z,6.10
2022-12-25T06:41:17.844Z,6.03
2022-12-25T06:43:49.832Z,6.08
2022-12-25T06:46:18.262Z,6.04
2022-12-25T06:48:49.944Z,6.02
2022-12-25T06:51:18.663Z,5.99
2022-12-25T06:53:48.949Z,5.95
2022-12-25T06:56:19.620Z,5.94
2022-12-25T06:58:49.101Z,5.91
2022-12-25T07:01:22.427Z,5.90
2022-12-25T07:03:53.284Z,5.90
2022-12-25T07:06:21.354Z,5.86
2022-12-25T07:08:51.355Z,5.84
2022-12-25T07:11:19.878Z,5.80
2022-12-25T07:13:48.475Z,5.75
2022-12-25T07:16:17.640Z,5.71
2022-12-25T07:18:45.805Z,5.64
2022-12-25T07:21:15.950Z,5.64
2022-12-25T07:23:44.425Z,5.68
2022-12-25T07:26:15.049Z,5.71
2022-12-25T07:28:43.140Z,5.69
2022-12-25T07:31:13.264Z,5.67
2022-12-25T07:33:41.284Z,5.74
2022-12-25T07:36:12.980Z,5.73
2022-12-25T07:38:42.046Z,5.70
2022-12-25T07:41:10.794Z,5.70
2022-12-25T07:43:40.577Z,5.67
2022-12-25T07:46:09.070Z,5.64
2022-12-25T07:48:37.581Z,5.61
2022-12-25T07:51:07.765Z,5.60
2022-12-25T07:53:36.269Z,5.56
2022-12-25T07:56:06.432Z,5.53
2022-12-25T07:58:34.640Z,5.56
2022-12-25T08:01:06.497Z,5.58
2022-12-25T08:03:36.707Z,5.56
2022-12-25T08:06:06.881Z,5.53
2022-12-25T08:08:35.365Z,5.48
2022-12-25T08:11:03.565Z,5.44
2022-12-25T08:13:32.339Z,5.41
2022-12-25T08:16:01.988Z,5.46
2022-12-25T08:18:33.078Z,5.53
2022-12-25T08:21:05.277Z,5.67
2022-12-25T08:23:35.606Z,5.81
2022-12-25T08:26:05.869Z,5.91
2022-12-25T08:28:35.116Z,6.00
2022-12-25T08:31:11.657Z,6.04
2022-12-25T08:33:41.689Z,6.11
2022-12-25T08:36:11.630Z,6.14
2022-12-25T08:38:40.751Z,6.12
2022-12-25T08:41:09.276Z,6.13
2022-12-25T08:43:38.847Z,6.14
2022-12-25T08:46:13.707Z,6.17
2022-12-25T08:48:45.795Z,6.16
2022-12-25T08:51:15.949Z,6.19
2022-12-25T08:53:43.998Z,6.29
2022-12-25T08:56:13.380Z,6.42
2022-12-25T08:58:45.277Z,6.51
2022-12-25T09:01:16.385Z,6.56
2022-12-25T09:03:46.161Z,6.60
2022-12-25T09:06:16.538Z,6.66
2022-12-25T09:08:49.209Z,6.71
2022-12-25T09:11:20.227Z,6.81
2022-12-25T09:13:49.219Z,6.96
2022-12-25T09:16:20.290Z,7.14
2022-12-25T09:18:50.383Z,7.29
2022-12-25T09:21:19.218Z,7.43
2022-12-25T09:23:47.402Z,7.52
2022-12-25T09:26:17.508Z,7.59
2022-12-25T09:28:51.214Z,7.74
2022-12-25T09:31:21.032Z,7.93
2022-12-25T09:33:51.088Z,8.09
2022-12-25T09:36:23.589Z,8.14
2022-12-25T09:38:52.067Z,8.10
2022-12-25T09:41:28.401Z,7.97
2022-12-25T09:44:01.519Z,7.83
2022-12-25T09:46:37.310Z,7.74
2022-12-25T09:49:21.505Z,7.64
2022-12-25T09:52:00.519Z,7.50
2022-12-25T09:54:40.867Z,7.37
2022-12-25T09:57:12.221Z,7.24
2022-12-25T09:59:41.291Z,7.15
2022-12-25T10:02:38.144Z,7.07
2022-12-25T10:05:31.968Z,6.98
2022-12-25T10:08:13.436Z,6.89
2022-12-25T10:10:54.828Z,6.87
2022-12-25T10:13:52.816Z,6.80
2022-12-25T10:16:34.991Z,6.82
2022-12-25T10:19:29.783Z,6.80
2022-12-25T10:22:02.749Z,6.76
2022-12-25T10:24:37.416Z,6.75
2022-12-25T10:27:20.316Z,6.76
2022-12-25T10:29:53.934Z,6.83
2022-12-25T10:32:24.198Z,6.95
2022-12-25T10:34:53.053Z,7.10
2022-12-25T10:37:26.557Z,7.24
2022-12-25T10:39:54.935Z,7.29
2022-12-25T10:42:34.936Z,7.30
2022-12-25T10:45:06.080Z,7.24
2022-12-25T10:47:38.159Z,7.19
2022-12-25T10:50:11.692Z,7.19
2022-12-25T10:52:56.797Z,7.28
2022-12-25T10:55:29.123Z,7.37
2022-12-25T10:57:58.987Z,7.42
2022-12-25T11:00:30.615Z,7.50
2022-12-25T11:03:02.862Z,7.57
2022-12-25T11:05:32.548Z,7.59
2022-12-25T11:08:05.009Z,7.58
2022-12-25T11:10:38.179Z,7.53
2022-12-25T11:13:08.622Z,7.58
2022-12-25T11:15:40.005Z,7.65
2022-12-25T11:18:20.721Z,7.70
2022-12-25T11:20:54.660Z,7.77
2022-12-25T11:23:27.742Z,7.85
2022-12-25T11:25:59.572Z,7.94
2022-12-25T11:28:32.403Z,8.01
2022-12-25T11:31:04.132Z,8.07
2022-12-25T11:33:40.175Z,8.13
2022-12-25T11:36:17.104Z,8.18
2022-12-25T11:38:47.368Z,8.26
2022-12-25T11:41:20.877Z,8.32
2022-12-25T11:43:56.939Z,8.36
2022-12-25T11:46:30.965Z,8.42
2022-12-25T11:49:03.625Z,8.47
2022-12-25T11:51:37.240Z,8.54
2022-12-25T11:54:18.529Z,8.60
2022-12-25T11:56:48.595Z,8.65
2022-12-25T11:59:24.305Z,8.67
2022-12-25T12:01:56.330Z,8.64
2022-12-25T12:04:32.680Z,8.55
2022-12-25T12:07:14.144Z,8.55
2022-12-25T12:10:06.382Z,8.59
2022-12-25T12:12:48.485Z,8.62
2022-12-25T12:15:27.400Z,8.65
2022-12-25T12:17:55.498Z,8.67
2022-12-25T12:20:33.953Z,8.75
2022-12-25T12:23:06.240Z,8.85
2022-12-25T12:25:42.501Z,8.98
2022-12-25T12:28:15.706Z,9.06
2022-12-25T12:30:44.664Z,9.05
2022-12-25T12:33:21.914Z,9.11
2022-12-25T12:35:50.748Z,9.25
2022-12-25T12:38:21.699Z,9.32
2022-12-25T12:40:57.283Z,9.36
2022-12-25T12:46:35.706Z,9.40
2022-12-25T12:49:11.518Z,9.37
2022-12-25T12:51:39.894Z,9.42
2022-12-25T12:54:21.423Z,9.28
2022-12-25T12:57:12.040Z,9.19
2022-12-25T12:59:43.650Z,9.14
2022-12-25T13:02:37.283Z,9.25
2022-12-25T13:05:09.334Z,9.52
2022-12-25T13:07:54.863Z,9.66
2022-12-25T13:10:28.587Z,9.72
2022-12-25T13:13:00.657Z,9.69
2022-12-25T13:15:32.267Z,9.58
2022-12-25T13:18:04.143Z,9.61
2022-12-25T13:20:41.990Z,9.65
2022-12-25T13:23:28.042Z,9.52
2022-12-25T13:25:58.205Z,9.51
2022-12-25T13:28:31.589Z,9.44
2022-12-25T13:31:11.259Z,9.35
2022-12-25T13:33:39.986Z,9.39
2022-12-25T13:36:12.553Z,9.46
2022-12-25T13:38:46.613Z,9.52
2022-12-25T13:41:36.677Z,9.47
2022-12-25T13:44:12.820Z,9.46
2022-12-25T13:46:40.966Z,9.46
2022-12-25T13:49:15.231Z,9.66
2022-12-25T13:51:43.908Z,9.96
2022-12-25T13:54:14.414Z,9.96
2022-12-25T13:56:49.196Z,9.83
2022-12-25T13:59:21.501Z,9.75
2022-12-25T14:01:50.830Z,9.72
2022-12-25T14:04:21.673Z,9.81
2022-12-25T14:06:50.855Z,9.85
2022-12-25T14:09:20.523Z,9.82
2022-12-25T14:11:53.685Z,9.79
2022-12-25T14:14:26.446Z,9.74
2022-12-25T14:16:59.994Z,9.71
2022-12-25T14:19:33.042Z,9.69
2022-12-25T14:22:04.302Z,9.70
2022-12-25T14:24:35.808Z,9.69
2022-12-25T14:27:08.065Z,9.72
2022-12-25T14:29:40.970Z,9.73
2022-12-25T14:32:18.037Z,9.67
2022-12-25T14:34:48.713Z,9.64
2022-12-25T14:37:19.707Z,9.65
2022-12-25T14:39:56.730Z,9.66
2022-12-25T14:42:27.463Z,9.72
2022-12-25T14:45:06.625Z,9.89
2022-12-25T14:47:50.693Z,9.96
2022-12-25T14:50:27.680Z,9.96
2022-12-25T14:52:56.163Z,9.98
2022-12-25T14:55:27.191Z,10.01
2022-12-25T14:58:00.012Z,9.93
2022-12-25T15:00:35.696Z,9.79
2022-12-25T15:03:08.561Z,9.63
2022-12-25T15:05:39.143Z,9.51
2022-12-25T15:08:23.691Z,9.40
2022-12-25T15:11:02.137Z,9.34
2022-12-25T15:13:32.298Z,9.23
2022-12-25T15:16:05.826Z,9.18
2022-12-25T15:18:39.614Z,9.09
2022-12-25T15:21:08.271Z,9.03
2022-12-25T15:23:38.364Z,9.02
2022-12-25T15:26:07.017Z,8.97
2022-12-25T15:28:35.018Z,8.90
2022-12-25T15:31:04.811Z,8.84
2022-12-25T15:33:33.596Z,8.79
2022-12-25T15:36:02.046Z,8.76
2022-12-25T15:38:36.523Z,8.66
2022-12-25T15:41:04.791Z,8.60
2022-12-25T15:43:41.329Z,8.47
2022-12-25T15:46:12.383Z,8.39
2022-12-25T15:48:40.504Z,8.32
2022-12-25T15:51:08.637Z,8.33
2022-12-25T15:53:36.892Z,8.28
2022-12-25T15:56:05.240Z,8.20
2022-12-25T15:58:33.305Z,8.15
2022-12-25T16:01:01.411Z,8.07
2022-12-25T16:03:31.014Z,8.05
2022-12-25T16:05:59.232Z,7.99
2022-12-25T16:08:28.348Z,7.92
2022-12-25T16:10:56.381Z,7.87
2022-12-25T16:13:24.720Z,7.82
2022-12-25T16:15:53.259Z,7.81
2022-12-25T16:18:21.405Z,7.78
2022-12-25T16:20:51.018Z,7.75
2022-12-25T16:23:19.474Z,7.74
2022-12-25T16:25:48.019Z,7.75
2022-12-25T16:28:16.302Z,7.77
2022-12-25T16:30:44.827Z,7.75
2022-12-25T16:33:13.366Z,7.79
2022-12-25T16:35:41.576Z,7.84
2022-12-25T16:38:11.833Z,7.93
2022-12-25T16:40:40.680Z,7.93
2022-12-25T16:43:10.021Z,7.93
2022-12-25T16:45:41.019Z,7.94
2022-12-25T16:48:09.398Z,7.88
2022-12-25T16:50:39.585Z,7.80
2022-12-25T16:53:07.474Z,7.78
2022-12-25T16:55:38.924Z,7.72
2022-12-25T16:58:07.834Z,7.62
2022-12-25T17:00:35.865Z,7.53
2022-12-25T17:03:04.328Z,7.47
2022-12-25T17:05:34.646Z,7.42
2022-12-25T17:08:02.677Z,7.41
2022-12-25T17:10:30.740Z,7.39
2022-12-25T17:13:00.159Z,7.37
2022-12-25T17:15:29.308Z,7.42
2022-12-25T17:17:57.517Z,7.47
2022-12-25T17:20:25.634Z,7.50
2022-12-25T17:22:53.652Z,7.51
2022-12-25T17:25:21.954Z,7.58
2022-12-25T17:27:51.356Z,7.66
2022-12-25T17:30:21.074Z,7.72
2022-12-25T17:32:49.135Z,7.78
2022-12-25T17:35:18.393Z,7.85
2022-12-25T17:37:46.753Z,7.91
2022-12-25T17:40:18.076Z,7.97
2022-12-25T17:42:48.747Z,8.02
2022-12-25T17:45:17.680Z,8.07
2022-12-25T17:47:47.126Z,8.09
2022-12-25T17:50:15.142Z,8.02
2022-12-25T17:52:43.322Z,7.95
2022-12-25T17:55:11.589Z,7.98
2022-12-25T17:57:41.337Z,8.07
2022-12-25T18:00:10.705Z,8.14
2022-12-25T18:02:49.609Z,8.20
2022-12-25T18:05:17.918Z,8.23
2022-12-25T18:07:46.384Z,8.23
2022-12-25T18:10:14.958Z,8.20
2022-12-25T18:12:44.698Z,8.16
2022-12-25T18:15:13.382Z,8.14
2022-12-25T18:17:43.489Z,8.14
2022-12-25T18:20:13.152Z,8.18
2022-12-25T18:22:41.181Z,8.13
2022-12-25T18:25:10.463Z,8.01
2022-12-25T18:27:38.651Z,7.86
2022-12-25T18:30:08.130Z,7.71
2022-12-25T18:32:36.223Z,7.57
2022-12-25T18:35:04.723Z,7.43
2022-12-25T18:37:40.003Z,7.21
2022-12-25T18:40:09.851Z,7.03
2022-12-25T18:42:43.216Z,6.90
2022-12-25T18:45:13.997Z,6.83
2022-12-25T18:47:42.307Z,6.78
2022-12-25T18:50:11.173Z,6.72
2022-12-25T18:52:49.218Z,6.57
2022-12-25T18:55:19.540Z,6.41
2022-12-25T18:57:48.635Z,6.26
2022-12-25T19:00:17.266Z,6.14
2022-12-25T19:02:45.524Z,6.07
2022-12-25T19:05:13.661Z,5.95
2022-12-25T19:07:43.229Z,5.76
2022-12-25T19:10:11.667Z,5.53
2022-12-25T19:12:39.776Z,5.26
2022-12-25T19:15:08.831Z,5.03
2022-12-25T19:17:36.938Z,4.84
2022-12-25T19:20:06.108Z,4.66
2022-12-25T19:22:34.194Z,4.45
2022-12-25T19:25:03.670Z,4.16
2022-12-25T19:27:31.951Z,4.04
2022-12-25T19:30:00.285Z,3.96
2022-12-25T19:32:35.173Z,3.94
2022-12-25T19:35:10.970Z,3.92
2022-12-25T19:37:45.258Z,3.82
2022-12-25T19:40:17.945Z,3.71
2022-12-25T19:42:46.245Z,3.64
2022-12-25T19:45:14.545Z,3.58
2022-12-25T19:47:54.829Z,3.52
2022-12-25T19:50:28.458Z,3.42
2022-12-25T19:52:56.847Z,3.30
2022-12-25T19:55:26.464Z,3.14
2022-12-25T19:57:55.505Z,3.09
2022-12-25T20:00:25.659Z,3.11
2022-12-25T20:02:55.645Z,3.06
2022-12-25T20:05:24.036Z,2.98
2022-12-25T20:07:52.264Z,2.96
2022-12-25T20:10:20.354Z,2.85
2022-12-25T20:12:49.876Z,2.78
2022-12-25T20:15:18.818Z,2.76
2022-12-25T20:17:47.755Z,2.76
2022-12-25T20:20:15.917Z,2.82
2022-12-25T20:22:44.238Z,2.84
2022-12-25T20:25:14.028Z,2.89
2022-12-25T20:27:42.112Z,2.96
2022-12-25T20:30:13.781Z,3.03
2022-12-25T20:32:48.073Z,3.06
2022-12-25T20:35:19.110Z,3.08
2022-12-25T20:37:48.505Z,3.12
2022-12-25T20:40:17.135Z,3.14
2022-12-25T20:42:45.477Z,3.18
2022-12-25T20:45:15.439Z,3.14
2022-12-25T20:47:43.788Z,3.12
2022-12-25T20:50:11.960Z,3.13
2022-12-25T20:52:40.137Z,3.17
2022-12-25T20:55:09.015Z,3.20
2022-12-25T20:57:37.154Z,3.22
2022-12-25T21:00:06.455Z,3.22
2022-12-25T21:02:37.544Z,3.23
2022-12-25T21:05:08.040Z,3.21
2022-12-25T21:07:36.632Z,3.22
2022-12-25T21:10:06.871Z,3.20
2022-12-25T21:12:35.326Z,3.20
2022-12-25T21:15:06.823Z,3.18
2022-12-25T21:17:38.784Z,3.22
2022-12-25T21:20:17.923Z,3.23
2022-12-25T21:22:48.380Z,3.25
2022-12-25T21:25:19.815Z,3.27
2022-12-25T21:27:48.063Z,3.23
2022-12-25T21:30:16.279Z,3.19
2022-12-25T21:33:00.021Z,3.20
2022-12-25T21:35:31.141Z,3.22
2022-12-25T21:37:59.975Z,3.19
2022-12-25T21:40:28.207Z,3.17
2022-12-25T21:42:56.742Z,3.13
2022-12-25T21:45:25.074Z,3.12
2022-12-25T21:48:13.652Z,3.11
2022-12-25T21:50:59.277Z,3.08
2022-12-25T21:53:27.510Z,3.05
2022-12-25T21:56:00.720Z,3.00
2022-12-25T21:58:28.972Z,3.06
2022-12-25T22:00:57.593Z,3.09
2022-12-25T22:03:27.254Z,3.10
2022-12-25T22:06:21.783Z,3.11
2022-12-25T22:08:50.594Z,3.08
2022-12-25T22:11:36.370Z,3.02
2022-12-25T22:14:51.103Z,2.93
2022-12-25T22:17:31.907Z,2.79
2022-12-25T22:20:04.731Z,2.66
2022-12-25T22:22:33.701Z,2.56
2022-12-25T22:25:04.264Z,2.46
2022-12-25T22:27:38.543Z,2.39
2022-12-25T22:30:13.316Z,2.33
2022-12-25T22:32:44.937Z,2.29
2022-12-25T22:35:15.929Z,2.24
2022-12-25T22:37:44.502Z,2.19
2022-12-25T22:40:19.061Z,2.17
2022-12-25T22:42:47.367Z,2.15
2022-12-25T22:45:20.114Z,2.10
2022-12-25T22:47:51.680Z,2.04
2022-12-25T22:50:21.699Z,2.02
2022-12-25T22:52:51.151Z,1.99
2022-12-25T22:55:20.352Z,1.98
2022-12-25T22:57:49.183Z,1.92
2022-12-25T23:00:17.506Z,1.87
2022-12-25T23:02:47.553Z,1.84
2022-12-25T23:05:16.592Z,1.82
2022-12-25T23:07:46.800Z,1.78
2022-12-25T23:10:15.278Z,1.77
2022-12-25T23:13:01.792Z,1.72
2022-12-25T23:15:30.146Z,1.70
2022-12-25T23:18:16.949Z,1.66
2022-12-25T23:21:02.417Z,1.64
2022-12-25T23:23:49.802Z,1.59
2022-12-25T23:26:19.077Z,1.54
2022-12-25T23:29:16.209Z,1.51
2022-12-25T23:31:44.856Z,1.50
2022-12-25T23:34:13.080Z,1.45
2022-12-25T23:36:41.489Z,1.44
2022-12-25T23:39:12.318Z,1.42
2022-12-25T23:41:44.579Z,1.42
2022-12-25T23:44:14.123Z,1.39
2022-12-25T23:46:52.562Z,1.36
2022-12-25T23:49:22.031Z,1.33
2022-12-25T23:51:50.234Z,1.28
2022-12-25T23:54:21.632Z,1.23
2022-12-25T23:56:50.607Z,1.17
2022-12-25T23:59:19.868Z,1.18
